Silverado, California
Current Conditions -  °F | °C
As of 11:56 PM on Monday 20 Oct 2014 (Local Time) from KAJO Reporting Station
Clear Clear  
Wind Chill: 58°   Ceiling: Unl
Heat Index: 58°   Visibility: 10mi
Dew Point: 55°   Wind: 0mph
Humidity: 90%   Direction: NA
Pressure: 29.92"   Gusts: NA
Location:  33.75°N, 117.64°W
Report Text: KAJO 210656Z AUTO 00000KT 10SM CLR 14/13 A2992 RMK AO2 T01440127 SLP127 $
Loading
Personal Weather Stations






























Interactive Weather Map New forecast layout! Learn more

10-Day Weather Forecast

Advertisements
Track Severe Weather on mobile